createdAt,value
2022-11-16T00:00:15.676Z,68.20
2022-11-16T00:03:06.045Z,65.75
2022-11-16T00:05:37.869Z,63.24
2022-11-16T00:08:09.892Z,61.07
2022-11-16T00:10:42.211Z,56.86
2022-11-16T00:13:14.162Z,54.82
2022-11-16T00:15:54.522Z,54.86
2022-11-16T00:18:26.613Z,56.22
2022-11-16T00:20:58.676Z,57.49
2022-11-16T00:23:30.870Z,58.55
2022-11-16T00:26:07.517Z,59.45
2022-11-16T00:28:39.601Z,60.34
2022-11-16T00:31:12.310Z,64.41
2022-11-16T00:33:44.528Z,67.54
2022-11-16T00:36:16.610Z,64.86
2022-11-16T00:38:48.624Z,62.13
2022-11-16T00:41:20.649Z,60.44
2022-11-16T00:43:52.461Z,57.68
2022-11-16T00:46:24.392Z,56.05
2022-11-16T00:48:56.765Z,56.45
2022-11-16T00:51:28.623Z,57.45
2022-11-16T00:54:00.478Z,58.29
2022-11-16T00:56:32.619Z,59.19
2022-11-16T00:59:04.529Z,59.99
2022-11-16T01:01:37.933Z,63.60
2022-11-16T01:04:11.340Z,66.42
2022-11-16T01:06:43.338Z,64.34
2022-11-16T01:09:15.187Z,61.89
2022-11-16T01:12:04.405Z,60.42
2022-11-16T01:14:36.259Z,56.89
2022-11-16T01:17:08.818Z,55.32
2022-11-16T01:19:40.987Z,56.06
2022-11-16T01:22:12.902Z,56.99
2022-11-16T01:24:47.013Z,57.53
2022-11-16T01:27:18.853Z,58.39
2022-11-16T01:29:50.841Z,58.87
2022-11-16T01:32:22.731Z,59.66
2022-11-16T01:34:54.737Z,60.86
2022-11-16T01:37:33.183Z,65.39
2022-11-16T01:40:05.532Z,67.83
2022-11-16T01:42:38.361Z,65.00
2022-11-16T01:45:21.104Z,62.51
2022-11-16T01:47:56.325Z,60.93
2022-11-16T01:50:32.197Z,57.60
2022-11-16T01:53:08.872Z,55.93
2022-11-16T01:55:49.930Z,56.49
2022-11-16T01:58:48.355Z,57.30
2022-11-16T02:01:24.756Z,58.39
2022-11-16T02:03:58.433Z,57.43
2022-11-16T02:06:46.294Z,60.42
2022-11-16T02:09:59.128Z,66.55
2022-11-16T02:27:02.127Z,64.14
2022-11-16T02:29:37.174Z,63.64
2022-11-16T02:32:15.109Z,61.79
2022-11-16T02:34:52.125Z,60.66
2022-11-16T02:37:27.434Z,58.08
2022-11-16T02:40:02.319Z,56.83
2022-11-16T02:42:39.193Z,57.16
2022-11-16T02:45:17.727Z,58.14
2022-11-16T02:47:51.832Z,59.22
2022-11-16T02:50:25.677Z,60.42
2022-11-16T02:52:58.376Z,64.49
2022-11-16T02:55:33.806Z,66.73
2022-11-16T02:58:10.808Z,64.88
2022-11-16T03:00:49.246Z,62.93
2022-11-16T03:03:29.617Z,61.15
2022-11-16T03:06:08.772Z,58.19
2022-11-16T03:08:44.045Z,56.47
2022-11-16T03:11:34.594Z,57.12
2022-11-16T03:14:12.148Z,58.06
2022-11-16T03:16:48.271Z,59.51
2022-11-16T03:19:24.566Z,63.60
2022-11-16T03:21:59.331Z,66.26
2022-11-16T03:24:31.624Z,65.38
2022-11-16T03:27:13.701Z,63.69
2022-11-16T03:29:53.638Z,62.09
2022-11-16T03:32:31.003Z,61.14
2022-11-16T03:35:07.917Z,60.22
2022-11-16T03:37:42.145Z,57.70
2022-11-16T03:40:16.841Z,56.70
2022-11-16T03:42:50.608Z,57.82
2022-11-16T03:45:23.404Z,59.09
2022-11-16T03:47:55.576Z,60.46
2022-11-16T03:50:28.489Z,64.50
2022-11-16T03:53:00.337Z,66.93
2022-11-16T03:55:32.371Z,65.56
2022-11-16T03:58:04.315Z,63.99
2022-11-16T04:00:39.292Z,62.61
2022-11-16T04:03:13.944Z,61.58
2022-11-16T04:06:03.674Z,60.46
2022-11-16T04:08:52.911Z,58.34
2022-11-16T04:11:42.907Z,57.19
2022-11-16T04:14:33.714Z,58.15
2022-11-16T04:17:19.668Z,59.36
2022-11-16T04:20:05.381Z,64.47
2022-11-16T04:23:04.252Z,66.41
2022-11-16T04:25:38.999Z,64.48
2022-11-16T04:28:20.117Z,62.50
2022-11-16T04:31:18.083Z,61.08
2022-11-16T04:34:29.995Z,57.40
2022-11-16T04:37:20.202Z,56.59
2022-11-16T04:39:52.940Z,57.61
2022-11-16T04:42:26.112Z,59.09
2022-11-16T04:45:15.660Z,60.50
2022-11-16T04:47:52.515Z,66.05
2022-11-16T04:50:25.272Z,67.36
2022-11-16T04:52:57.055Z,65.05
2022-11-16T04:55:28.978Z,63.00
2022-11-16T04:58:00.793Z,61.36
2022-11-16T05:00:32.627Z,58.39
2022-11-16T05:03:06.140Z,56.92
2022-11-16T05:05:38.964Z,58.15
2022-11-16T05:08:11.030Z,59.53
2022-11-16T05:10:42.832Z,63.74
2022-11-16T05:13:14.919Z,66.12
2022-11-16T05:15:48.965Z,64.68
2022-11-16T05:18:21.164Z,62.98
2022-11-16T05:21:02.407Z,61.63
2022-11-16T05:23:55.651Z,60.49
2022-11-16T05:26:29.442Z,58.01
2022-11-16T05:29:01.595Z,57.24
2022-11-16T05:31:39.128Z,58.40
2022-11-16T05:34:13.768Z,59.74
2022-11-16T05:36:45.993Z,64.04
2022-11-16T05:39:18.272Z,66.65
2022-11-16T05:41:51.293Z,65.57
2022-11-16T05:44:23.563Z,64.36
2022-11-16T05:46:56.286Z,63.13
2022-11-16T05:49:28.390Z,62.60
2022-11-16T05:52:00.494Z,61.92
2022-11-16T05:54:33.137Z,61.25
2022-11-16T05:57:05.100Z,60.84
2022-11-16T05:59:37.295Z,60.86
2022-11-16T06:02:09.768Z,60.73
2022-11-16T06:04:41.742Z,60.45
2022-11-16T06:07:13.797Z,60.71
2022-11-16T06:09:45.846Z,60.56
2022-11-16T06:12:21.370Z,60.38
2022-11-16T06:14:53.749Z,60.09
2022-11-16T06:17:26.684Z,59.82
2022-11-16T06:19:58.814Z,57.96
2022-11-16T06:22:34.190Z,57.35
2022-11-16T06:25:07.841Z,59.02
2022-11-16T06:27:42.952Z,63.11
2022-11-16T06:30:16.341Z,66.13
2022-11-16T06:32:49.350Z,65.64
2022-11-16T06:35:21.216Z,64.20
2022-11-16T06:37:53.600Z,62.64
2022-11-16T06:40:26.381Z,62.13
2022-11-16T06:42:58.867Z,61.71
2022-11-16T06:45:32.436Z,61.49
2022-11-16T06:48:05.331Z,61.69
2022-11-16T06:50:37.561Z,61.70
2022-11-16T06:53:10.605Z,61.73
2022-11-16T06:55:43.306Z,61.68
2022-11-16T06:58:15.548Z,61.25
2022-11-16T07:00:47.654Z,61.27
2022-11-16T07:03:20.351Z,61.11
2022-11-16T07:05:52.989Z,60.68
2022-11-16T07:08:26.177Z,59.78
2022-11-16T07:11:02.972Z,57.59
2022-11-16T07:13:37.850Z,57.55
2022-11-16T07:16:12.311Z,59.12
2022-11-16T07:18:48.202Z,63.36
2022-11-16T07:21:20.482Z,66.09
2022-11-16T07:23:53.017Z,65.58
2022-11-16T07:26:25.196Z,65.03
2022-11-16T07:29:09.560Z,64.05
2022-11-16T07:31:44.043Z,63.06
2022-11-16T07:34:36.269Z,62.41
2022-11-16T07:37:12.059Z,62.04
2022-11-16T07:39:45.924Z,61.71
2022-11-16T07:42:18.374Z,61.06
2022-11-16T07:44:57.123Z,60.57
2022-11-16T07:47:29.039Z,60.57
2022-11-16T07:50:00.831Z,60.16
2022-11-16T07:52:33.184Z,60.42
2022-11-16T07:55:11.181Z,60.40
2022-11-16T07:57:45.201Z,60.21
2022-11-16T08:00:21.163Z,60.28
2022-11-16T08:02:59.673Z,60.37
2022-11-16T08:05:31.620Z,60.47
2022-11-16T08:08:03.347Z,60.23
2022-11-16T08:10:36.751Z,60.53
2022-11-16T08:13:08.921Z,60.38
2022-11-16T08:15:40.824Z,60.12
2022-11-16T08:18:14.552Z,60.03
2022-11-16T08:20:46.366Z,59.96
2022-11-16T08:23:18.245Z,60.22
2022-11-16T08:25:49.993Z,60.30
2022-11-16T08:28:22.283Z,60.48
2022-11-16T08:30:54.518Z,60.56
2022-11-16T08:33:27.389Z,60.85
2022-11-16T08:36:06.192Z,61.14
2022-11-16T08:38:41.857Z,61.63
2022-11-16T08:41:14.131Z,61.91
2022-11-16T08:43:47.454Z,61.78
2022-11-16T08:46:20.318Z,61.49
2022-11-16T08:48:57.921Z,61.22
2022-11-16T08:51:29.940Z,61.23
2022-11-16T08:54:09.542Z,61.30
2022-11-16T08:56:42.747Z,61.20
2022-11-16T08:59:14.746Z,61.12
2022-11-16T09:01:51.347Z,60.58
2022-11-16T09:04:23.445Z,60.29
2022-11-16T09:06:55.464Z,60.45
2022-11-16T09:09:27.381Z,60.15
2022-11-16T09:11:59.323Z,58.11
2022-11-16T09:14:31.184Z,56.94
2022-11-16T09:17:03.247Z,59.37
2022-11-16T09:19:35.015Z,62.93
2022-11-16T09:22:07.149Z,65.68
2022-11-16T09:24:39.594Z,64.36
2022-11-16T09:27:11.516Z,63.65
2022-11-16T09:29:43.435Z,63.49
2022-11-16T09:32:15.212Z,63.33
2022-11-16T09:34:47.623Z,62.97
2022-11-16T09:37:19.391Z,62.08
2022-11-16T09:39:51.155Z,61.14
2022-11-16T09:42:34.638Z,60.61
2022-11-16T09:45:12.556Z,60.35
2022-11-16T09:47:50.178Z,60.03
2022-11-16T09:50:39.688Z,59.86
2022-11-16T09:53:23.359Z,59.95
2022-11-16T09:55:57.887Z,59.92
2022-11-16T09:58:34.386Z,59.52
2022-11-16T10:01:14.977Z,58.12
2022-11-16T10:03:50.953Z,57.59
2022-11-16T10:06:28.798Z,59.40
2022-11-16T10:09:00.735Z,63.64
2022-11-16T10:11:52.932Z,65.91
2022-11-16T10:14:52.477Z,65.34
2022-11-16T10:17:34.396Z,64.33
2022-11-16T10:20:30.294Z,63.77
2022-11-16T10:23:16.474Z,63.56
2022-11-16T10:25:53.685Z,62.86
2022-11-16T10:28:53.691Z,62.24
2022-11-16T10:31:36.178Z,61.85
2022-11-16T10:34:16.311Z,61.34
2022-11-16T10:36:48.627Z,60.74
2022-11-16T10:39:21.951Z,60.48
2022-11-16T10:41:54.213Z,60.01
2022-11-16T10:44:35.635Z,59.96
2022-11-16T10:47:13.715Z,59.93
2022-11-16T10:49:47.989Z,60.02
2022-11-16T10:52:19.872Z,60.25
2022-11-16T10:54:52.209Z,60.04
2022-11-16T10:57:26.567Z,59.72
2022-11-16T10:59:59.200Z,57.79
2022-11-16T11:02:34.932Z,57.33
2022-11-16T11:05:21.341Z,58.65
2022-11-16T11:08:04.320Z,63.45
2022-11-16T11:10:37.903Z,65.42
2022-11-16T11:13:27.459Z,64.29
2022-11-16T11:18:57.196Z,63.33
2022-11-16T11:21:29.815Z,62.97
2022-11-16T11:24:29.629Z,62.85
2022-11-16T11:27:00.220Z,62.72
2022-11-16T11:29:35.915Z,62.40
2022-11-16T11:32:16.967Z,61.99
2022-11-16T11:34:55.869Z,61.91
2022-11-16T11:37:34.066Z,61.38
2022-11-16T11:40:24.263Z,61.04
2022-11-16T11:42:59.418Z,61.38
2022-11-16T11:45:43.742Z,61.40
2022-11-16T11:48:29.072Z,61.52
2022-11-16T11:51:10.108Z,61.20
2022-11-16T11:53:53.099Z,61.34
2022-11-16T11:56:25.944Z,61.16
2022-11-16T11:58:59.388Z,61.14
2022-11-16T12:01:48.785Z,61.05
2022-11-16T12:04:47.992Z,61.30
2022-11-16T12:07:32.908Z,61.51
2022-11-16T12:10:14.446Z,61.69
2022-11-16T12:13:01.630Z,61.90
2022-11-16T12:15:49.946Z,62.21
2022-11-16T12:18:35.634Z,62.38
2022-11-16T12:21:14.495Z,62.39
2022-11-16T12:24:10.078Z,62.04
2022-11-16T12:26:56.066Z,62.58
2022-11-16T12:29:34.430Z,62.66
2022-11-16T12:32:21.977Z,62.92
2022-11-16T12:35:09.818Z,62.99
2022-11-16T12:37:49.412Z,63.41
2022-11-16T12:40:50.328Z,63.59
2022-11-16T12:43:31.093Z,63.56
2022-11-16T12:46:12.906Z,63.11
2022-11-16T12:49:10.798Z,62.88
2022-11-16T12:51:49.971Z,62.75
2022-11-16T12:55:28.373Z,63.06
2022-11-16T12:58:06.938Z,63.46
2022-11-16T13:00:51.273Z,63.57
2022-11-16T13:03:30.518Z,63.14
2022-11-16T13:06:06.544Z,62.93
2022-11-16T13:08:46.210Z,62.84
2022-11-16T13:11:23.456Z,62.70
2022-11-16T13:14:01.299Z,62.30
2022-11-16T13:16:33.888Z,62.32
2022-11-16T13:19:11.341Z,62.39
2022-11-16T13:21:54.862Z,62.92
2022-11-16T13:24:46.185Z,62.75
2022-11-16T13:27:38.159Z,62.33
2022-11-16T13:30:19.477Z,61.96
2022-11-16T13:33:04.002Z,62.19
2022-11-16T13:35:38.926Z,62.88
2022-11-16T13:38:14.192Z,63.20
2022-11-16T13:40:45.983Z,62.62
2022-11-16T13:43:22.683Z,62.18
2022-11-16T13:45:58.650Z,61.94
2022-11-16T13:48:35.929Z,62.25
2022-11-16T13:51:17.389Z,62.48
2022-11-16T13:56:52.679Z,62.01
2022-11-16T13:59:29.786Z,61.97
2022-11-16T14:02:04.198Z,61.97
2022-11-16T14:04:58.024Z,62.65
2022-11-16T14:07:40.652Z,63.17
2022-11-16T14:10:33.511Z,63.30
2022-11-16T14:13:06.353Z,63.16
2022-11-16T14:15:39.188Z,62.93
2022-11-16T14:18:38.189Z,62.82
2022-11-16T14:21:21.920Z,62.61
2022-11-16T14:24:13.919Z,62.13
2022-11-16T14:26:53.820Z,61.87
2022-11-16T14:29:49.282Z,62.59
2022-11-16T14:32:24.549Z,62.20
2022-11-16T14:34:58.169Z,61.84
2022-11-16T14:37:37.173Z,61.75
2022-11-16T14:40:18.763Z,62.00
2022-11-16T14:43:15.237Z,61.67
2022-11-16T14:45:53.356Z,61.68
2022-11-16T14:48:26.976Z,62.54
2022-11-16T14:51:09.089Z,62.82
2022-11-16T14:53:43.362Z,62.13
2022-11-16T14:56:17.241Z,61.63
2022-11-16T14:58:56.797Z,61.62
2022-11-16T15:01:30.885Z,61.57
2022-11-16T15:04:05.320Z,61.66
2022-11-16T15:06:43.293Z,61.60
2022-11-16T15:09:22.188Z,61.62
2022-11-16T15:12:12.017Z,61.78
2022-11-16T15:14:49.393Z,61.60
2022-11-16T15:17:27.265Z,61.63
2022-11-16T15:20:03.360Z,61.46
2022-11-16T15:22:42.924Z,61.23
2022-11-16T15:25:29.699Z,61.28
2022-11-16T15:28:04.146Z,61.67
2022-11-16T15:30:37.600Z,61.60
2022-11-16T15:33:17.475Z,61.76
2022-11-16T15:35:49.561Z,61.58
2022-11-16T15:38:24.175Z,61.56
2022-11-16T15:40:57.627Z,61.37
2022-11-16T15:43:35.849Z,61.57
2022-11-16T15:46:14.583Z,61.58
2022-11-16T15:48:46.864Z,61.66
2022-11-16T15:51:24.224Z,61.67
2022-11-16T15:54:12.668Z,61.70
2022-11-16T15:56:44.632Z,61.63
2022-11-16T15:59:25.012Z,61.59
2022-11-16T16:01:57.379Z,61.40
2022-11-16T16:04:30.026Z,61.55
2022-11-16T16:07:02.542Z,61.75
2022-11-16T16:09:36.926Z,61.65
2022-11-16T16:12:23.307Z,61.85
2022-11-16T16:15:15.147Z,61.83
2022-11-16T16:17:49.663Z,61.85
2022-11-16T16:20:23.973Z,61.92
2022-11-16T16:23:06.106Z,62.14
2022-11-16T16:25:38.490Z,62.24
2022-11-16T16:28:14.163Z,62.36
2022-11-16T16:30:45.918Z,62.20
2022-11-16T16:33:22.905Z,62.25
2022-11-16T16:35:54.657Z,62.07
2022-11-16T16:38:26.576Z,62.00
2022-11-16T16:41:03.587Z,62.05
2022-11-16T16:43:35.849Z,62.03
2022-11-16T16:46:08.768Z,61.92
2022-11-16T16:48:44.647Z,61.93
2022-11-16T16:51:16.827Z,61.65
2022-11-16T16:53:48.647Z,61.54
2022-11-16T16:56:20.501Z,61.57
2022-11-16T16:58:52.476Z,61.53
2022-11-16T17:01:24.498Z,61.32
2022-11-16T17:03:57.289Z,61.20
2022-11-16T17:06:30.769Z,61.19
2022-11-16T17:09:02.661Z,61.22
2022-11-16T17:11:34.424Z,61.47
2022-11-16T17:14:07.906Z,61.50
2022-11-16T17:16:39.744Z,61.49
2022-11-16T17:19:14.061Z,61.43
2022-11-16T17:21:45.931Z,61.52
2022-11-16T17:24:17.695Z,61.19
2022-11-16T17:26:50.627Z,61.22
2022-11-16T17:29:22.394Z,61.28
2022-11-16T17:31:54.118Z,61.33
2022-11-16T17:34:25.896Z,61.41
2022-11-16T17:36:57.709Z,61.18
2022-11-16T17:39:30.631Z,61.11
2022-11-16T17:42:02.524Z,61.37
2022-11-16T17:44:34.360Z,61.15
2022-11-16T17:47:07.465Z,60.99
2022-11-16T17:49:39.374Z,61.09
2022-11-16T17:52:11.247Z,61.18
2022-11-16T17:54:43.116Z,61.18
2022-11-16T17:57:14.891Z,61.39
2022-11-16T17:59:46.796Z,61.07
2022-11-16T18:02:18.558Z,60.93
2022-11-16T18:04:53.320Z,60.65
2022-11-16T18:07:25.274Z,60.65
2022-11-16T18:09:57.078Z,60.86
2022-11-16T18:12:28.794Z,60.97
2022-11-16T18:15:26.916Z,60.75
2022-11-16T18:17:52.753Z,61.00
2022-11-16T18:20:24.568Z,61.28
2022-11-16T18:22:56.345Z,61.30
2022-11-16T18:25:28.116Z,61.25
2022-11-16T18:27:59.905Z,60.92
2022-11-16T18:30:31.713Z,61.07
2022-11-16T18:33:03.486Z,61.25
2022-11-16T18:35:35.235Z,61.31
2022-11-16T18:38:08.262Z,61.95
2022-11-16T18:40:40.928Z,62.27
2022-11-16T18:43:15.845Z,61.84
2022-11-16T18:45:47.668Z,61.77
2022-11-16T18:48:19.549Z,61.69
2022-11-16T18:50:51.444Z,61.31
2022-11-16T18:53:23.253Z,61.07
2022-11-16T18:55:57.984Z,60.89
2022-11-16T19:01:24.825Z,60.76
2022-11-16T19:03:57.617Z,60.65
2022-11-16T19:06:32.341Z,60.67
2022-11-16T19:09:06.310Z,60.63
2022-11-16T19:11:38.455Z,60.52
2022-11-16T19:14:10.496Z,60.67
2022-11-16T19:16:52.644Z,61.05
2022-11-16T19:19:29.908Z,61.43
2022-11-16T19:22:01.818Z,61.68
2022-11-16T19:24:33.590Z,61.78
2022-11-16T19:27:05.377Z,62.50
2022-11-16T19:29:37.215Z,63.07
2022-11-16T19:32:09.385Z,63.24
2022-11-16T19:34:41.179Z,62.43
2022-11-16T19:37:14.018Z,62.33
2022-11-16T19:39:45.944Z,61.89
2022-11-16T19:42:17.714Z,61.85
2022-11-16T19:44:49.489Z,61.87
2022-11-16T19:47:23.156Z,62.02
2022-11-16T19:49:54.985Z,62.76
2022-11-16T19:52:26.758Z,63.26
2022-11-16T19:54:58.508Z,62.93
2022-11-16T19:57:30.355Z,62.94
2022-11-16T20:00:02.229Z,62.84
2022-11-16T20:02:38.760Z,62.61
2022-11-16T20:05:11.573Z,62.39
2022-11-16T20:07:44.724Z,61.67
2022-11-16T20:10:16.964Z,61.29
2022-11-16T20:12:49.782Z,61.46
2022-11-16T20:15:23.940Z,61.76
2022-11-16T20:17:55.782Z,62.26
2022-11-16T20:20:30.225Z,62.16
2022-11-16T20:23:02.430Z,62.29
2022-11-16T20:25:34.230Z,61.66
2022-11-16T20:28:06.069Z,61.58
2022-11-16T20:30:37.927Z,61.92
2022-11-16T20:33:09.792Z,62.65
2022-11-16T20:35:41.588Z,62.09
2022-11-16T20:38:13.370Z,62.36
2022-11-16T20:40:45.177Z,63.04
2022-11-16T20:43:17.084Z,63.46
2022-11-16T20:45:54.767Z,63.62
2022-11-16T20:48:26.601Z,63.82
2022-11-16T20:50:58.460Z,64.44
2022-11-16T20:53:30.233Z,64.60
2022-11-16T20:56:03.287Z,64.52
2022-11-16T20:58:35.746Z,64.24
2022-11-16T21:01:09.492Z,64.68
2022-11-16T21:03:42.639Z,64.82
2022-11-16T21:06:15.099Z,65.22
2022-11-16T21:08:46.963Z,65.69
2022-11-16T21:11:21.470Z,65.88
2022-11-16T21:14:11.555Z,66.58
2022-11-16T21:16:44.046Z,66.55
2022-11-16T21:19:16.076Z,65.92
2022-11-16T21:21:47.823Z,65.44
2022-11-16T21:24:19.591Z,65.20
2022-11-16T21:26:53.623Z,64.90
2022-11-16T21:29:27.253Z,64.57
2022-11-16T21:31:59.491Z,64.79
2022-11-16T21:34:34.623Z,65.51
2022-11-16T21:37:09.099Z,64.56
2022-11-16T21:39:40.857Z,63.78
2022-11-16T21:42:13.039Z,63.07
2022-11-16T21:44:44.757Z,62.86
2022-11-16T21:47:19.311Z,62.45
2022-11-16T21:50:24.877Z,62.17
2022-11-16T21:52:45.342Z,62.04
2022-11-16T21:55:17.086Z,62.10
2022-11-16T21:57:50.680Z,62.38
2022-11-16T22:00:23.042Z,62.51
2022-11-16T22:02:55.142Z,62.76
2022-11-16T22:05:46.885Z,63.12
2022-11-16T22:08:18.659Z,63.59
2022-11-16T22:10:53.449Z,63.19
2022-11-16T22:13:25.608Z,62.80
2022-11-16T22:15:57.552Z,62.79
2022-11-16T22:18:29.760Z,62.47
2022-11-16T22:21:02.349Z,62.34
2022-11-16T22:23:34.676Z,62.55
2022-11-16T22:26:08.414Z,62.49
2022-11-16T22:28:40.545Z,62.26
2022-11-16T22:31:14.182Z,62.63
2022-11-16T22:33:46.112Z,62.34
2022-11-16T22:36:17.983Z,62.28
2022-11-16T22:38:49.958Z,62.44
2022-11-16T22:41:21.813Z,62.20
2022-11-16T22:43:53.669Z,62.21
2022-11-16T22:46:25.539Z,62.23
2022-11-16T22:48:57.443Z,62.10
2022-11-16T22:51:30.784Z,62.31
2022-11-16T22:54:04.235Z,62.63
2022-11-16T22:56:36.236Z,62.56
2022-11-16T22:59:09.075Z,62.22
2022-11-16T23:01:41.058Z,62.60
2022-11-16T23:04:12.886Z,62.91
2022-11-16T23:06:44.718Z,62.94
2022-11-16T23:09:16.641Z,63.21
2022-11-16T23:12:20.245Z,62.92
2022-11-16T23:15:09.506Z,62.90
2022-11-16T23:17:41.338Z,63.25
2022-11-16T23:20:31.468Z,63.33
2022-11-16T23:23:20.616Z,62.93
2022-11-16T23:26:09.932Z,62.93
2022-11-16T23:28:41.969Z,62.73
2022-11-16T23:31:13.788Z,62.57
2022-11-16T23:33:45.588Z,62.40
2022-11-16T23:36:17.512Z,62.28
2022-11-16T23:38:49.324Z,62.47
2022-11-16T23:41:38.436Z,62.98
2022-11-16T23:44:10.223Z,62.77
2022-11-16T23:46:42.004Z,62.22
2022-11-16T23:49:13.859Z,61.86
2022-11-16T23:51:47.730Z,61.42
2022-11-16T23:54:19.616Z,61.38
2022-11-16T23:56:51.439Z,61.70
2022-11-16T23:59:23.413Z,61.67
